sensor_id;sensor_type;location;lat;lon;timestamp;temperature;humidity
28087;DHT22;15392;48.912;8.380;2023-07-09T00:02:25;28.70;35.10
28087;DHT22;15392;48.912;8.380;2023-07-09T00:04:51;28.70;34.70
28087;DHT22;15392;48.912;8.380;2023-07-09T00:07:27;28.70;34.70
28087;DHT22;15392;48.912;8.380;2023-07-09T00:09:55;28.60;35.20
28087;DHT22;15392;48.912;8.380;2023-07-09T00:12:22;28.50;34.80
28087;DHT22;15392;48.912;8.380;2023-07-09T00:14:48;28.50;34.90
28087;DHT22;15392;48.912;8.380;2023-07-09T00:17:30;28.50;34.90
28087;DHT22;15392;48.912;8.380;2023-07-09T00:19:59;28.40;35.80
28087;DHT22;15392;48.912;8.380;2023-07-09T00:22:25;28.40;34.90
28087;DHT22;15392;48.912;8.380;2023-07-09T00:24:52;28.30;35.00
28087;DHT22;15392;48.912;8.380;2023-07-09T00:27:23;28.30;35.10
28087;DHT22;15392;48.912;8.380;2023-07-09T00:29:52;28.30;35.20
28087;DHT22;15392;48.912;8.380;2023-07-09T00:32:19;28.20;35.10
28087;DHT22;15392;48.912;8.380;2023-07-09T00:34:51;28.20;35.40
28087;DHT22;15392;48.912;8.380;2023-07-09T00:37:20;28.20;35.40
28087;DHT22;15392;48.912;8.380;2023-07-09T00:39:51;28.20;35.50
28087;DHT22;15392;48.912;8.380;2023-07-09T00:42:21;28.10;35.30
28087;DHT22;15392;48.912;8.380;2023-07-09T00:44:53;28.10;35.80
28087;DHT22;15392;48.912;8.380;2023-07-09T00:47:48;28.10;35.80
28087;DHT22;15392;48.912;8.380;2023-07-09T00:50:52;28.10;36.50
28087;DHT22;15392;48.912;8.380;2023-07-09T00:53:27;28.10;36.50
28087;DHT22;15392;48.912;8.380;2023-07-09T00:56:40;28.00;35.60
28087;DHT22;15392;48.912;8.380;2023-07-09T00:59:14;28.00;36.50
28087;DHT22;15392;48.912;8.380;2023-07-09T01:01:41;28.00;35.80
28087;DHT22;15392;48.912;8.380;2023-07-09T01:04:08;28.00;35.30
28087;DHT22;15392;48.912;8.380;2023-07-09T01:06:39;28.00;35.50
28087;DHT22;15392;48.912;8.380;2023-07-09T01:09:09;27.90;35.50
28087;DHT22;15392;48.912;8.380;2023-07-09T01:11:35;27.90;35.40
28087;DHT22;15392;48.912;8.380;2023-07-09T01:14:05;27.80;35.30
28087;DHT22;15392;48.912;8.380;2023-07-09T01:16:39;27.80;35.70
28087;DHT22;15392;48.912;8.380;2023-07-09T01:19:07;27.80;36.10
28087;DHT22;15392;48.912;8.380;2023-07-09T01:21:33;27.80;35.70
28087;DHT22;15392;48.912;8.380;2023-07-09T01:24:12;27.80;35.70
28087;DHT22;15392;48.912;8.380;2023-07-09T01:26:39;27.80;36.90
28087;DHT22;15392;48.912;8.380;2023-07-09T01:29:06;27.80;35.90
28087;DHT22;15392;48.912;8.380;2023-07-09T01:31:32;27.70;36.00
28087;DHT22;15392;48.912;8.380;2023-07-09T01:33:58;27.70;35.90
28087;DHT22;15392;48.912;8.380;2023-07-09T01:36:24;27.70;35.90
28087;DHT22;15392;48.912;8.380;2023-07-09T01:38:51;27.70;35.80
28087;DHT22;15392;48.912;8.380;2023-07-09T01:41:19;27.70;35.80
28087;DHT22;15392;48.912;8.380;2023-07-09T01:43:46;27.60;35.80
28087;DHT22;15392;48.912;8.380;2023-07-09T01:46:12;27.60;36.00
28087;DHT22;15392;48.912;8.380;2023-07-09T01:48:39;27.60;35.80
28087;DHT22;15392;48.912;8.380;2023-07-09T01:51:15;27.50;35.80
28087;DHT22;15392;48.912;8.380;2023-07-09T01:53:44;27.50;36.40
28087;DHT22;15392;48.912;8.380;2023-07-09T01:56:10;27.40;35.80
28087;DHT22;15392;48.912;8.380;2023-07-09T01:58:37;27.40;35.90
28087;DHT22;15392;48.912;8.380;2023-07-09T02:01:07;27.40;35.90
28087;DHT22;15392;48.912;8.380;2023-07-09T02:03:34;27.40;35.90
28087;DHT22;15392;48.912;8.380;2023-07-09T02:06:00;27.40;36.10
28087;DHT22;15392;48.912;8.380;2023-07-09T02:08:28;27.40;36.20
28087;DHT22;15392;48.912;8.380;2023-07-09T02:10:54;27.40;36.20
28087;DHT22;15392;48.912;8.380;2023-07-09T02:13:19;27.40;36.30
28087;DHT22;15392;48.912;8.380;2023-07-09T02:15:45;27.40;36.30
28087;DHT22;15392;48.912;8.380;2023-07-09T02:18:12;27.40;36.30
28087;DHT22;15392;48.912;8.380;2023-07-09T02:20:38;27.40;36.30
28087;DHT22;15392;48.912;8.380;2023-07-09T02:23:06;27.40;36.30
28087;DHT22;15392;48.912;8.380;2023-07-09T02:25:33;27.40;36.50
28087;DHT22;15392;48.912;8.380;2023-07-09T02:27:59;27.40;36.40
28087;DHT22;15392;48.912;8.380;2023-07-09T02:30:25;27.40;36.40
28087;DHT22;15392;48.912;8.380;2023-07-09T02:32:51;27.30;36.40
28087;DHT22;15392;48.912;8.380;2023-07-09T02:35:20;27.30;36.40
28087;DHT22;15392;48.912;8.380;2023-07-09T02:37:46;27.30;36.40
28087;DHT22;15392;48.912;8.380;2023-07-09T02:40:12;27.30;36.40
28087;DHT22;15392;48.912;8.380;2023-07-09T02:42:40;27.30;36.30
28087;DHT22;15392;48.912;8.380;2023-07-09T02:45:09;27.20;36.20
28087;DHT22;15392;48.912;8.380;2023-07-09T02:47:35;27.20;36.30
28087;DHT22;15392;48.912;8.380;2023-07-09T02:50:01;27.20;36.20
28087;DHT22;15392;48.912;8.380;2023-07-09T02:52:27;27.10;36.20
28087;DHT22;15392;48.912;8.380;2023-07-09T02:54:52;27.10;36.30
28087;DHT22;15392;48.912;8.380;2023-07-09T02:57:18;27.00;36.20
28087;DHT22;15392;48.912;8.380;2023-07-09T02:59:44;27.00;36.20
28087;DHT22;15392;48.912;8.380;2023-07-09T03:02:10;27.00;36.20
28087;DHT22;15392;48.912;8.380;2023-07-09T03:04:36;27.00;36.30
28087;DHT22;15392;48.912;8.380;2023-07-09T03:07:02;27.00;36.30
28087;DHT22;15392;48.912;8.380;2023-07-09T03:09:29;26.90;36.30
28087;DHT22;15392;48.912;8.380;2023-07-09T03:11:55;26.80;36.50
28087;DHT22;15392;48.912;8.380;2023-07-09T03:14:21;26.80;36.40
28087;DHT22;15392;48.912;8.380;2023-07-09T03:16:46;26.80;36.50
28087;DHT22;15392;48.912;8.380;2023-07-09T03:19:12;26.70;36.50
28087;DHT22;15392;48.912;8.380;2023-07-09T03:21:38;26.70;36.50
28087;DHT22;15392;48.912;8.380;2023-07-09T03:24:04;26.70;36.70
28087;DHT22;15392;48.912;8.380;2023-07-09T03:26:30;26.70;36.70
28087;DHT22;15392;48.912;8.380;2023-07-09T03:28:56;26.70;36.60
28087;DHT22;15392;48.912;8.380;2023-07-09T03:31:22;26.60;36.70
28087;DHT22;15392;48.912;8.380;2023-07-09T03:33:49;26.60;36.80
28087;DHT22;15392;48.912;8.380;2023-07-09T03:36:17;26.60;37.50
28087;DHT22;15392;48.912;8.380;2023-07-09T03:38:45;26.60;36.90
28087;DHT22;15392;48.912;8.380;2023-07-09T03:41:10;26.50;36.90
28087;DHT22;15392;48.912;8.380;2023-07-09T03:43:36;26.50;36.90
28087;DHT22;15392;48.912;8.380;2023-07-09T03:46:02;26.50;37.00
28087;DHT22;15392;48.912;8.380;2023-07-09T03:48:28;26.50;37.10
28087;DHT22;15392;48.912;8.380;2023-07-09T03:50:54;26.50;37.10
28087;DHT22;15392;48.912;8.380;2023-07-09T03:53:20;26.50;37.10
28087;DHT22;15392;48.912;8.380;2023-07-09T03:55:51;26.50;37.20
28087;DHT22;15392;48.912;8.380;2023-07-09T03:58:18;26.40;37.20
28087;DHT22;15392;48.912;8.380;2023-07-09T04:00:43;26.40;37.10
28087;DHT22;15392;48.912;8.380;2023-07-09T04:03:10;26.50;37.20
28087;DHT22;15392;48.912;8.380;2023-07-09T04:05:37;26.40;37.20
28087;DHT22;15392;48.912;8.380;2023-07-09T04:08:04;26.40;37.30
28087;DHT22;15392;48.912;8.380;2023-07-09T04:10:30;26.40;37.30
28087;DHT22;15392;48.912;8.380;2023-07-09T04:12:57;26.40;37.50
28087;DHT22;15392;48.912;8.380;2023-07-09T04:15:23;26.40;37.40
28087;DHT22;15392;48.912;8.380;2023-07-09T04:17:48;26.40;37.40
28087;DHT22;15392;48.912;8.380;2023-07-09T04:20:14;26.40;37.40
28087;DHT22;15392;48.912;8.380;2023-07-09T04:22:41;26.40;37.50
28087;DHT22;15392;48.912;8.380;2023-07-09T04:25:09;26.40;37.40
28087;DHT22;15392;48.912;8.380;2023-07-09T04:27:37;26.40;37.70
28087;DHT22;15392;48.912;8.380;2023-07-09T04:30:14;26.40;37.50
28087;DHT22;15392;48.912;8.380;2023-07-09T04:32:42;26.30;37.40
28087;DHT22;15392;48.912;8.380;2023-07-09T04:35:09;26.30;37.40
28087;DHT22;15392;48.912;8.380;2023-07-09T04:37:37;26.30;37.50
28087;DHT22;15392;48.912;8.380;2023-07-09T04:40:04;26.30;37.60
28087;DHT22;15392;48.912;8.380;2023-07-09T04:42:32;26.30;37.60
28087;DHT22;15392;48.912;8.380;2023-07-09T04:44:58;26.30;37.60
28087;DHT22;15392;48.912;8.380;2023-07-09T04:47:24;26.30;37.70
28087;DHT22;15392;48.912;8.380;2023-07-09T04:49:50;26.30;37.70
28087;DHT22;15392;48.912;8.380;2023-07-09T04:52:15;26.30;37.70
28087;DHT22;15392;48.912;8.380;2023-07-09T04:54:41;26.30;37.80
28087;DHT22;15392;48.912;8.380;2023-07-09T04:57:11;26.30;38.00
28087;DHT22;15392;48.912;8.380;2023-07-09T04:59:37;26.20;38.30
28087;DHT22;15392;48.912;8.380;2023-07-09T05:02:03;26.20;38.10
28087;DHT22;15392;48.912;8.380;2023-07-09T05:04:30;26.20;38.20
28087;DHT22;15392;48.912;8.380;2023-07-09T05:06:57;26.30;38.30
28087;DHT22;15392;48.912;8.380;2023-07-09T05:09:23;26.30;38.70
28087;DHT22;15392;48.912;8.380;2023-07-09T05:11:49;26.40;38.60
28087;DHT22;15392;48.912;8.380;2023-07-09T05:14:16;26.40;38.50
28087;DHT22;15392;48.912;8.380;2023-07-09T05:16:43;26.40;38.50
28087;DHT22;15392;48.912;8.380;2023-07-09T05:19:11;26.40;38.60
28087;DHT22;15392;48.912;8.380;2023-07-09T05:21:37;26.50;38.40
28087;DHT22;15392;48.912;8.380;2023-07-09T05:24:04;26.50;38.60
28087;DHT22;15392;48.912;8.380;2023-07-09T05:26:30;26.50;38.80
28087;DHT22;15392;48.912;8.380;2023-07-09T05:28:56;26.60;39.10
28087;DHT22;15392;48.912;8.380;2023-07-09T05:31:22;26.60;39.00
28087;DHT22;15392;48.912;8.380;2023-07-09T05:33:48;26.70;38.90
28087;DHT22;15392;48.912;8.380;2023-07-09T05:36:14;26.70;38.90
28087;DHT22;15392;48.912;8.380;2023-07-09T05:38:44;26.80;39.00
28087;DHT22;15392;48.912;8.380;2023-07-09T05:41:12;26.80;39.30
28087;DHT22;15392;48.912;8.380;2023-07-09T05:43:38;26.80;38.90
28087;DHT22;15392;48.912;8.380;2023-07-09T05:46:05;26.90;39.10
28087;DHT22;15392;48.912;8.380;2023-07-09T05:48:31;27.00;39.30
28087;DHT22;15392;48.912;8.380;2023-07-09T05:50:57;27.00;39.30
28087;DHT22;15392;48.912;8.380;2023-07-09T05:53:23;27.10;39.10
28087;DHT22;15392;48.912;8.380;2023-07-09T05:55:53;27.10;39.20
28087;DHT22;15392;48.912;8.380;2023-07-09T05:58:19;27.20;39.80
28087;DHT22;15392;48.912;8.380;2023-07-09T06:00:45;27.30;39.00
28087;DHT22;15392;48.912;8.380;2023-07-09T06:03:11;27.40;39.00
28087;DHT22;15392;48.912;8.380;2023-07-09T06:05:37;27.50;39.10
28087;DHT22;15392;48.912;8.380;2023-07-09T06:08:03;27.60;39.00
28087;DHT22;15392;48.912;8.380;2023-07-09T06:10:29;27.60;38.90
28087;DHT22;15392;48.912;8.380;2023-07-09T06:12:56;27.70;38.70
28087;DHT22;15392;48.912;8.380;2023-07-09T06:15:25;27.80;38.70
28087;DHT22;15392;48.912;8.380;2023-07-09T06:17:51;27.90;38.80
28087;DHT22;15392;48.912;8.380;2023-07-09T06:20:17;27.90;38.60
28087;DHT22;15392;48.912;8.380;2023-07-09T06:22:43;28.00;38.60
28087;DHT22;15392;48.912;8.380;2023-07-09T06:25:09;28.10;38.60
28087;DHT22;15392;48.912;8.380;2023-07-09T06:27:35;28.20;38.70
28087;DHT22;15392;48.912;8.380;2023-07-09T06:30:00;28.30;38.70
28087;DHT22;15392;48.912;8.380;2023-07-09T06:32:26;28.40;38.50
28087;DHT22;15392;48.912;8.380;2023-07-09T06:34:52;28.50;38.30
28087;DHT22;15392;48.912;8.380;2023-07-09T06:37:18;28.50;38.30
28087;DHT22;15392;48.912;8.380;2023-07-09T06:39:44;28.70;38.40
28087;DHT22;15392;48.912;8.380;2023-07-09T06:42:10;28.70;38.50
28087;DHT22;15392;48.912;8.380;2023-07-09T06:44:36;28.80;38.40
28087;DHT22;15392;48.912;8.380;2023-07-09T06:47:02;28.90;38.30
28087;DHT22;15392;48.912;8.380;2023-07-09T06:49:28;29.10;38.30
28087;DHT22;15392;48.912;8.380;2023-07-09T06:51:54;29.20;38.20
28087;DHT22;15392;48.912;8.380;2023-07-09T06:54:19;29.30;38.10
28087;DHT22;15392;48.912;8.380;2023-07-09T06:56:45;29.40;38.00
28087;DHT22;15392;48.912;8.380;2023-07-09T06:59:11;29.50;38.10
28087;DHT22;15392;48.912;8.380;2023-07-09T07:01:37;29.60;38.00
28087;DHT22;15392;48.912;8.380;2023-07-09T07:04:03;29.80;37.90
28087;DHT22;15392;48.912;8.380;2023-07-09T07:06:29;29.90;37.90
28087;DHT22;15392;48.912;8.380;2023-07-09T07:08:56;30.00;37.70
28087;DHT22;15392;48.912;8.380;2023-07-09T07:11:22;30.10;37.70
28087;DHT22;15392;48.912;8.380;2023-07-09T07:13:48;30.30;37.60
28087;DHT22;15392;48.912;8.380;2023-07-09T07:16:19;30.40;37.70
28087;DHT22;15392;48.912;8.380;2023-07-09T07:18:45;30.60;37.70
28087;DHT22;15392;48.912;8.380;2023-07-09T07:21:10;30.70;37.60
28087;DHT22;15392;48.912;8.380;2023-07-09T07:23:36;30.90;37.60
28087;DHT22;15392;48.912;8.380;2023-07-09T07:26:02;31.10;37.50
28087;DHT22;15392;48.912;8.380;2023-07-09T07:28:30;31.20;37.30
28087;DHT22;15392;48.912;8.380;2023-07-09T07:31:07;31.40;37.30
28087;DHT22;15392;48.912;8.380;2023-07-09T07:33:34;31.60;37.60
28087;DHT22;15392;48.912;8.380;2023-07-09T07:36:03;31.90;37.20
28087;DHT22;15392;48.912;8.380;2023-07-09T07:38:29;32.00;37.00
28087;DHT22;15392;48.912;8.380;2023-07-09T07:40:55;32.20;36.90
28087;DHT22;15392;48.912;8.380;2023-07-09T07:43:21;32.30;36.70
28087;DHT22;15392;48.912;8.380;2023-07-09T07:45:47;32.50;36.80
28087;DHT22;15392;48.912;8.380;2023-07-09T07:48:14;32.60;36.60
28087;DHT22;15392;48.912;8.380;2023-07-09T07:50:42;32.80;36.60
28087;DHT22;15392;48.912;8.380;2023-07-09T07:53:09;32.90;36.40
28087;DHT22;15392;48.912;8.380;2023-07-09T07:55:36;33.10;36.50
28087;DHT22;15392;48.912;8.380;2023-07-09T07:58:03;33.30;36.60
28087;DHT22;15392;48.912;8.380;2023-07-09T08:00:30;33.60;36.60
28087;DHT22;15392;48.912;8.380;2023-07-09T08:02:56;33.80;37.10
28087;DHT22;15392;48.912;8.380;2023-07-09T08:05:22;34.10;36.60
28087;DHT22;15392;48.912;8.380;2023-07-09T08:07:49;34.40;36.60
28087;DHT22;15392;48.912;8.380;2023-07-09T08:10:15;34.80;36.50
28087;DHT22;15392;48.912;8.380;2023-07-09T08:12:41;35.10;36.30
28087;DHT22;15392;48.912;8.380;2023-07-09T08:15:08;35.50;36.20
28087;DHT22;15392;48.912;8.380;2023-07-09T08:17:34;35.80;36.10
28087;DHT22;15392;48.912;8.380;2023-07-09T08:19:59;36.20;35.80
28087;DHT22;15392;48.912;8.380;2023-07-09T08:22:26;36.50;35.60
28087;DHT22;15392;48.912;8.380;2023-07-09T08:24:52;36.90;35.40
28087;DHT22;15392;48.912;8.380;2023-07-09T08:27:18;37.10;35.00
28087;DHT22;15392;48.912;8.380;2023-07-09T08:29:45;37.40;34.80
28087;DHT22;15392;48.912;8.380;2023-07-09T08:32:12;37.60;34.50
28087;DHT22;15392;48.912;8.380;2023-07-09T08:34:39;37.80;34.20
28087;DHT22;15392;48.912;8.380;2023-07-09T08:37:07;38.00;34.10
28087;DHT22;15392;48.912;8.380;2023-07-09T08:39:34;38.10;33.80
28087;DHT22;15392;48.912;8.380;2023-07-09T08:42:03;38.20;33.70
28087;DHT22;15392;48.912;8.380;2023-07-09T08:44:53;38.30;33.30
28087;DHT22;15392;48.912;8.380;2023-07-09T08:50:56;38.40;32.90
28087;DHT22;15392;48.912;8.380;2023-07-09T08:53:37;38.40;33.10
28087;DHT22;15392;48.912;8.380;2023-07-09T08:56:24;38.30;32.70
28087;DHT22;15392;48.912;8.380;2023-07-09T08:58:55;38.30;33.30
28087;DHT22;15392;48.912;8.380;2023-07-09T09:01:26;38.30;33.10
28087;DHT22;15392;48.912;8.380;2023-07-09T09:04:00;38.40;33.30
28087;DHT22;15392;48.912;8.380;2023-07-09T09:06:31;38.50;34.00
28087;DHT22;15392;48.912;8.380;2023-07-09T09:09:34;38.60;33.50
28087;DHT22;15392;48.912;8.380;2023-07-09T09:14:50;39.00;33.00
28087;DHT22;15392;48.912;8.380;2023-07-09T09:17:21;39.20;33.60
28087;DHT22;15392;48.912;8.380;2023-07-09T09:19:54;39.40;33.60
28087;DHT22;15392;48.912;8.380;2023-07-09T09:22:24;39.50;33.70
28087;DHT22;15392;48.912;8.380;2023-07-09T09:25:15;39.80;33.20
28087;DHT22;15392;48.912;8.380;2023-07-09T09:27:46;40.00;32.50
28087;DHT22;15392;48.912;8.380;2023-07-09T09:30:19;40.20;33.30
28087;DHT22;15392;48.912;8.380;2023-07-09T09:33:04;40.40;32.40
28087;DHT22;15392;48.912;8.380;2023-07-09T09:35:39;40.60;32.00
28087;DHT22;15392;48.912;8.380;2023-07-09T09:38:16;40.80;32.20
28087;DHT22;15392;48.912;8.380;2023-07-09T09:40:42;41.00;31.60
28087;DHT22;15392;48.912;8.380;2023-07-09T09:43:20;41.10;32.50
28087;DHT22;15392;48.912;8.380;2023-07-09T09:45:49;41.20;31.30
28087;DHT22;15392;48.912;8.380;2023-07-09T09:48:36;41.30;32.90
28087;DHT22;15392;48.912;8.380;2023-07-09T09:51:05;41.40;31.10
28087;DHT22;15392;48.912;8.380;2023-07-09T09:53:38;41.40;31.40
28087;DHT22;15392;48.912;8.380;2023-07-09T09:56:10;41.40;31.70
28087;DHT22;15392;48.912;8.380;2023-07-09T09:58:41;41.40;31.80
28087;DHT22;15392;48.912;8.380;2023-07-09T10:01:17;41.40;31.70
28087;DHT22;15392;48.912;8.380;2023-07-09T10:03:47;41.50;30.70
28087;DHT22;15392;48.912;8.380;2023-07-09T10:06:34;41.50;31.20
28087;DHT22;15392;48.912;8.380;2023-07-09T10:09:23;41.50;31.10
28087;DHT22;15392;48.912;8.380;2023-07-09T10:17:38;41.10;30.70
28087;DHT22;15392;48.912;8.380;2023-07-09T10:23:29;40.80;30.30
28087;DHT22;15392;48.912;8.380;2023-07-09T10:32:01;40.30;30.20
28087;DHT22;15392;48.912;8.380;2023-07-09T10:35:04;40.30;30.10
28087;DHT22;15392;48.912;8.380;2023-07-09T10:37:50;40.10;30.30
28087;DHT22;15392;48.912;8.380;2023-07-09T10:40:36;40.00;30.50
28087;DHT22;15392;48.912;8.380;2023-07-09T10:43:06;40.00;30.50
28087;DHT22;15392;48.912;8.380;2023-07-09T10:45:47;39.80;31.30
28087;DHT22;15392;48.912;8.380;2023-07-09T10:48:20;39.70;30.50
28087;DHT22;15392;48.912;8.380;2023-07-09T10:50:57;39.70;31.00
28087;DHT22;15392;48.912;8.380;2023-07-09T10:53:44;39.60;31.30
28087;DHT22;15392;48.912;8.380;2023-07-09T10:56:22;39.60;30.00
28087;DHT22;15392;48.912;8.380;2023-07-09T10:59:11;39.50;30.60
28087;DHT22;15392;48.912;8.380;2023-07-09T11:01:56;39.50;30.00
28087;DHT22;15392;48.912;8.380;2023-07-09T11:04:29;39.40;29.80
28087;DHT22;15392;48.912;8.380;2023-07-09T11:07:20;39.40;30.90
28087;DHT22;15392;48.912;8.380;2023-07-09T11:09:49;39.40;30.10
28087;DHT22;15392;48.912;8.380;2023-07-09T11:15:06;39.30;29.70
28087;DHT22;15392;48.912;8.380;2023-07-09T11:17:40;39.30;29.90
28087;DHT22;15392;48.912;8.380;2023-07-09T11:20:28;39.30;30.70
28087;DHT22;15392;48.912;8.380;2023-07-09T11:23:07;39.30;29.60
28087;DHT22;15392;48.912;8.380;2023-07-09T11:26:14;39.30;29.50
28087;DHT22;15392;48.912;8.380;2023-07-09T11:28:47;39.40;29.10
28087;DHT22;15392;48.912;8.380;2023-07-09T11:31:46;39.40;29.60
28087;DHT22;15392;48.912;8.380;2023-07-09T11:34:17;39.40;29.10
28087;DHT22;15392;48.912;8.380;2023-07-09T11:36:56;39.40;29.90
28087;DHT22;15392;48.912;8.380;2023-07-09T11:39:50;39.40;29.90
28087;DHT22;15392;48.912;8.380;2023-07-09T11:42:50;39.50;29.40
28087;DHT22;15392;48.912;8.380;2023-07-09T11:45:28;39.50;29.30
28087;DHT22;15392;48.912;8.380;2023-07-09T11:50:56;39.60;29.10
28087;DHT22;15392;48.912;8.380;2023-07-09T11:53:45;39.60;29.80
28087;DHT22;15392;48.912;8.380;2023-07-09T11:56:13;39.60;28.90
28087;DHT22;15392;48.912;8.380;2023-07-09T11:58:56;39.70;30.00
28087;DHT22;15392;48.912;8.380;2023-07-09T12:01:44;39.70;28.80
28087;DHT22;15392;48.912;8.380;2023-07-09T12:04:32;39.80;29.10
28087;DHT22;15392;48.912;8.380;2023-07-09T12:07:00;39.90;29.00
28087;DHT22;15392;48.912;8.380;2023-07-09T12:09:33;39.90;29.60
28087;DHT22;15392;48.912;8.380;2023-07-09T12:12:15;40.00;29.40
28087;DHT22;15392;48.912;8.380;2023-07-09T12:14:43;40.10;30.00
28087;DHT22;15392;48.912;8.380;2023-07-09T12:17:10;40.20;30.20
28087;DHT22;15392;48.912;8.380;2023-07-09T12:19:36;40.30;30.40
28087;DHT22;15392;48.912;8.380;2023-07-09T12:22:05;40.40;30.70
28087;DHT22;15392;48.912;8.380;2023-07-09T12:24:38;40.40;30.50
28087;DHT22;15392;48.912;8.380;2023-07-09T12:27:24;40.50;29.50
28087;DHT22;15392;48.912;8.380;2023-07-09T12:29:55;40.60;29.10
28087;DHT22;15392;48.912;8.380;2023-07-09T12:32:23;40.70;29.60
28087;DHT22;15392;48.912;8.380;2023-07-09T12:34:54;40.70;29.90
28087;DHT22;15392;48.912;8.380;2023-07-09T12:37:21;40.80;29.50
28087;DHT22;15392;48.912;8.380;2023-07-09T12:39:50;40.90;29.90
28087;DHT22;15392;48.912;8.380;2023-07-09T12:42:46;41.00;30.00
28087;DHT22;15392;48.912;8.380;2023-07-09T12:45:19;41.10;29.10
28087;DHT22;15392;48.912;8.380;2023-07-09T12:47:48;41.20;29.20
28087;DHT22;15392;48.912;8.380;2023-07-09T12:50:31;41.20;29.90
28087;DHT22;15392;48.912;8.380;2023-07-09T12:53:18;41.40;29.90
28087;DHT22;15392;48.912;8.380;2023-07-09T12:55:50;41.50;29.00
28087;DHT22;15392;48.912;8.380;2023-07-09T12:58:23;41.60;30.00
28087;DHT22;15392;48.912;8.380;2023-07-09T13:00:52;41.60;28.50
28087;DHT22;15392;48.912;8.380;2023-07-09T13:03:24;41.70;29.40
28087;DHT22;15392;48.912;8.380;2023-07-09T13:08:30;41.80;28.80
28087;DHT22;15392;48.912;8.380;2023-07-09T13:11:15;41.90;29.50
28087;DHT22;15392;48.912;8.380;2023-07-09T13:13:52;41.90;28.30
28087;DHT22;15392;48.912;8.380;2023-07-09T13:16:20;42.00;29.40
28087;DHT22;15392;48.912;8.380;2023-07-09T13:18:46;42.10;29.70
28087;DHT22;15392;48.912;8.380;2023-07-09T13:21:17;42.20;29.50
28087;DHT22;15392;48.912;8.380;2023-07-09T13:23:44;42.20;28.60
28087;DHT22;15392;48.912;8.380;2023-07-09T13:26:12;42.20;29.20
28087;DHT22;15392;48.912;8.380;2023-07-09T13:28:39;42.30;29.10
28087;DHT22;15392;48.912;8.380;2023-07-09T13:31:14;42.30;29.10
28087;DHT22;15392;48.912;8.380;2023-07-09T13:33:52;42.30;28.10
28087;DHT22;15392;48.912;8.380;2023-07-09T13:36:20;42.30;27.80
28087;DHT22;15392;48.912;8.380;2023-07-09T13:38:46;42.40;29.10
28087;DHT22;15392;48.912;8.380;2023-07-09T13:41:14;42.30;28.80
28087;DHT22;15392;48.912;8.380;2023-07-09T13:43:45;42.30;28.40
28087;DHT22;15392;48.912;8.380;2023-07-09T13:46:12;42.30;28.50
28087;DHT22;15392;48.912;8.380;2023-07-09T13:48:47;42.30;28.70
28087;DHT22;15392;48.912;8.380;2023-07-09T13:51:20;42.10;28.70
28087;DHT22;15392;48.912;8.380;2023-07-09T13:53:53;42.10;28.60
28087;DHT22;15392;48.912;8.380;2023-07-09T13:56:20;42.00;28.80
28087;DHT22;15392;48.912;8.380;2023-07-09T13:58:46;41.90;29.30
28087;DHT22;15392;48.912;8.380;2023-07-09T14:01:15;41.80;29.30
28087;DHT22;15392;48.912;8.380;2023-07-09T14:03:43;41.80;29.00
28087;DHT22;15392;48.912;8.380;2023-07-09T14:06:12;41.70;29.20
28087;DHT22;15392;48.912;8.380;2023-07-09T14:08:38;41.70;29.10
28087;DHT22;15392;48.912;8.380;2023-07-09T14:11:13;41.70;29.30
28087;DHT22;15392;48.912;8.380;2023-07-09T14:13:40;41.70;28.20
28087;DHT22;15392;48.912;8.380;2023-07-09T14:16:10;41.60;29.00
28087;DHT22;15392;48.912;8.380;2023-07-09T14:18:37;41.60;28.90
28087;DHT22;15392;48.912;8.380;2023-07-09T14:21:24;41.60;29.30
28087;DHT22;15392;48.912;8.380;2023-07-09T14:23:54;41.60;28.10
28087;DHT22;15392;48.912;8.380;2023-07-09T14:26:20;41.60;29.10
28087;DHT22;15392;48.912;8.380;2023-07-09T14:28:46;41.50;29.10
28087;DHT22;15392;48.912;8.380;2023-07-09T14:31:32;41.50;29.10
28087;DHT22;15392;48.912;8.380;2023-07-09T14:34:23;41.50;28.00
28087;DHT22;15392;48.912;8.380;2023-07-09T14:36:52;41.50;27.80
28087;DHT22;15392;48.912;8.380;2023-07-09T14:39:19;41.50;29.00
28087;DHT22;15392;48.912;8.380;2023-07-09T14:41:45;41.50;29.00
28087;DHT22;15392;48.912;8.380;2023-07-09T14:46:50;41.40;27.90
28087;DHT22;15392;48.912;8.380;2023-07-09T14:49:18;41.40;28.80
28087;DHT22;15392;48.912;8.380;2023-07-09T14:51:45;41.40;28.70
28087;DHT22;15392;48.912;8.380;2023-07-09T14:54:19;41.30;28.70
28087;DHT22;15392;48.912;8.380;2023-07-09T14:56:50;41.30;28.40
28087;DHT22;15392;48.912;8.380;2023-07-09T14:59:20;41.20;28.70
28087;DHT22;15392;48.912;8.380;2023-07-09T15:01:46;41.20;28.70
28087;DHT22;15392;48.912;8.380;2023-07-09T15:06:49;41.10;28.20
28087;DHT22;15392;48.912;8.380;2023-07-09T15:09:16;41.10;29.40
28087;DHT22;15392;48.912;8.380;2023-07-09T15:11:58;41.10;29.30
28087;DHT22;15392;48.912;8.380;2023-07-09T15:14:25;41.00;28.90
28087;DHT22;15392;48.912;8.380;2023-07-09T15:16:53;41.00;29.30
28087;DHT22;15392;48.912;8.380;2023-07-09T15:19:21;41.00;29.20
28087;DHT22;15392;48.912;8.380;2023-07-09T15:21:49;40.90;28.80
28087;DHT22;15392;48.912;8.380;2023-07-09T15:24:26;40.80;28.90
28087;DHT22;15392;48.912;8.380;2023-07-09T15:26:54;40.80;27.80
28087;DHT22;15392;48.912;8.380;2023-07-09T15:29:21;40.80;29.00
28087;DHT22;15392;48.912;8.380;2023-07-09T15:31:49;40.70;29.20
28087;DHT22;15392;48.912;8.380;2023-07-09T15:34:15;40.70;29.10
28087;DHT22;15392;48.912;8.380;2023-07-09T15:36:47;40.60;29.20
28087;DHT22;15392;48.912;8.380;2023-07-09T15:39:15;40.60;29.20
28087;DHT22;15392;48.912;8.380;2023-07-09T15:41:43;40.50;29.20
28087;DHT22;15392;48.912;8.380;2023-07-09T15:44:13;40.50;29.10
28087;DHT22;15392;48.912;8.380;2023-07-09T15:46:44;40.40;28.80
28087;DHT22;15392;48.912;8.380;2023-07-09T15:49:19;40.30;29.20
28087;DHT22;15392;48.912;8.380;2023-07-09T15:51:45;40.30;30.00
28087;DHT22;15392;48.912;8.380;2023-07-09T15:54:16;40.20;29.30
28087;DHT22;15392;48.912;8.380;2023-07-09T15:56:44;40.10;29.10
28087;DHT22;15392;48.912;8.380;2023-07-09T16:02:00;39.90;29.10
28087;DHT22;15392;48.912;8.380;2023-07-09T16:04:28;39.80;29.60
28087;DHT22;15392;48.912;8.380;2023-07-09T16:06:54;39.70;30.20
28087;DHT22;15392;48.912;8.380;2023-07-09T16:09:21;39.60;29.80
28087;DHT22;15392;48.912;8.380;2023-07-09T16:11:53;39.50;30.00
28087;DHT22;15392;48.912;8.380;2023-07-09T16:14:30;39.40;29.70
28087;DHT22;15392;48.912;8.380;2023-07-09T16:16:58;39.30;29.70
28087;DHT22;15392;48.912;8.380;2023-07-09T16:19:31;39.20;30.00
28087;DHT22;15392;48.912;8.380;2023-07-09T16:22:02;39.20;30.20
28087;DHT22;15392;48.912;8.380;2023-07-09T16:24:32;39.00;30.00
28087;DHT22;15392;48.912;8.380;2023-07-09T16:27:00;39.00;30.10
28087;DHT22;15392;48.912;8.380;2023-07-09T16:29:32;38.90;30.40